sensor_id;sensor_type;location;lat;lon;timestamp;P1;durP1;ratioP1;P2;durP2;ratioP2
36321;SDS011;23564;48.290;11.460;2022-08-23T00:00:59;5.28;;;2.30;;
36321;SDS011;23564;48.290;11.460;2022-08-23T00:03:25;3.78;;;2.47;;
36321;SDS011;23564;48.290;11.460;2022-08-23T00:05:50;3.50;;;2.00;;
36321;SDS011;23564;48.290;11.460;2022-08-23T00:08:16;4.75;;;2.17;;
36321;SDS011;23564;48.290;11.460;2022-08-23T00:10:41;8.18;;;2.40;;
36321;SDS011;23564;48.290;11.460;2022-08-23T00:13:07;3.60;;;2.28;;
36321;SDS011;23564;48.290;11.460;2022-08-23T00:15:34;6.95;;;2.70;;
36321;SDS011;23564;48.290;11.460;2022-08-23T00:18:00;4.72;;;2.33;;
36321;SDS011;23564;48.290;11.460;2022-08-23T00:20:25;3.80;;;2.33;;
36321;SDS011;23564;48.290;11.460;2022-08-23T00:22:51;3.80;;;2.40;;
36321;SDS011;23564;48.290;11.460;2022-08-23T00:25:17;3.90;;;2.38;;
36321;SDS011;23564;48.290;11.460;2022-08-23T00:27:43;6.30;;;2.63;;
36321;SDS011;23564;48.290;11.460;2022-08-23T00:30:09;4.78;;;2.10;;
36321;SDS011;23564;48.290;11.460;2022-08-23T00:32:37;5.53;;;2.13;;
36321;SDS011;23564;48.290;11.460;2022-08-23T00:35:04;3.35;;;2.47;;
36321;SDS011;23564;48.290;11.460;2022-08-23T00:37:31;6.53;;;2.30;;
36321;SDS011;23564;48.290;11.460;2022-08-23T00:39:58;2.75;;;2.10;;
36321;SDS011;23564;48.290;11.460;2022-08-23T00:45:25;5.32;;;2.25;;
36321;SDS011;23564;48.290;11.460;2022-08-23T00:48:15;3.28;;;2.30;;
36321;SDS011;23564;48.290;11.460;2022-08-23T00:53:19;5.13;;;2.33;;
36321;SDS011;23564;48.290;11.460;2022-08-23T00:55:49;4.97;;;2.33;;
36321;SDS011;23564;48.290;11.460;2022-08-23T00:58:18;3.17;;;2.38;;
36321;SDS011;23564;48.290;11.460;2022-08-23T01:00:45;6.55;;;2.30;;
36321;SDS011;23564;48.290;11.460;2022-08-23T01:03:13;4.38;;;2.20;;
36321;SDS011;23564;48.290;11.460;2022-08-23T01:08:16;3.17;;;2.47;;
36321;SDS011;23564;48.290;11.460;2022-08-23T01:10:47;4.75;;;2.30;;
36321;SDS011;23564;48.290;11.460;2022-08-23T01:13:20;3.88;;;2.50;;
36321;SDS011;23564;48.290;11.460;2022-08-23T01:15:57;3.97;;;2.63;;
36321;SDS011;23564;48.290;11.460;2022-08-23T01:18:27;3.80;;;2.90;;
36321;SDS011;23564;48.290;11.460;2022-08-23T01:20:59;4.43;;;2.65;;
36321;SDS011;23564;48.290;11.460;2022-08-23T01:23:52;8.35;;;2.72;;
36321;SDS011;23564;48.290;11.460;2022-08-23T01:26:21;4.20;;;2.53;;
36321;SDS011;23564;48.290;11.460;2022-08-23T01:28:48;5.63;;;2.88;;
36321;SDS011;23564;48.290;11.460;2022-08-23T01:31:15;5.28;;;3.33;;
36321;SDS011;23564;48.290;11.460;2022-08-23T01:33:42;4.00;;;2.10;;
36321;SDS011;23564;48.290;11.460;2022-08-23T01:36:14;8.73;;;3.10;;
36321;SDS011;23564;48.290;11.460;2022-08-23T01:38:40;6.53;;;2.97;;
36321;SDS011;23564;48.290;11.460;2022-08-23T01:41:07;5.00;;;3.13;;
36321;SDS011;23564;48.290;11.460;2022-08-23T01:43:33;3.67;;;2.92;;
36321;SDS011;23564;48.290;11.460;2022-08-23T01:46:11;4.70;;;2.50;;
36321;SDS011;23564;48.290;11.460;2022-08-23T01:48:38;5.15;;;2.75;;
36321;SDS011;23564;48.290;11.460;2022-08-23T01:51:04;4.72;;;2.85;;
36321;SDS011;23564;48.290;11.460;2022-08-23T01:53:31;4.30;;;2.42;;
36321;SDS011;23564;48.290;11.460;2022-08-23T01:55:56;3.90;;;2.80;;
36321;SDS011;23564;48.290;11.460;2022-08-23T01:58:25;5.80;;;3.08;;
36321;SDS011;23564;48.290;11.460;2022-08-23T02:00:51;5.45;;;3.00;;
36321;SDS011;23564;48.290;11.460;2022-08-23T02:03:18;4.20;;;2.47;;
36321;SDS011;23564;48.290;11.460;2022-08-23T02:05:44;8.00;;;2.50;;
36321;SDS011;23564;48.290;11.460;2022-08-23T02:08:10;4.40;;;2.78;;
36321;SDS011;23564;48.290;11.460;2022-08-23T02:10:55;3.97;;;2.40;;
36321;SDS011;23564;48.290;11.460;2022-08-23T02:13:21;5.38;;;3.13;;
36321;SDS011;23564;48.290;11.460;2022-08-23T02:15:47;3.83;;;2.92;;
36321;SDS011;23564;48.290;11.460;2022-08-23T02:18:15;8.70;;;2.92;;
36321;SDS011;23564;48.290;11.460;2022-08-23T02:20:43;3.58;;;2.75;;
36321;SDS011;23564;48.290;11.460;2022-08-23T02:23:10;3.97;;;2.63;;
36321;SDS011;23564;48.290;11.460;2022-08-23T02:25:36;5.03;;;2.70;;
36321;SDS011;23564;48.290;11.460;2022-08-23T02:28:02;6.55;;;2.53;;
36321;SDS011;23564;48.290;11.460;2022-08-23T02:30:29;3.45;;;2.60;;
36321;SDS011;23564;48.290;11.460;2022-08-23T02:32:55;4.95;;;2.58;;
36321;SDS011;23564;48.290;11.460;2022-08-23T02:35:20;5.30;;;2.60;;
36321;SDS011;23564;48.290;11.460;2022-08-23T02:37:47;4.32;;;2.80;;
36321;SDS011;23564;48.290;11.460;2022-08-23T02:40:12;5.85;;;2.95;;
36321;SDS011;23564;48.290;11.460;2022-08-23T02:42:38;7.43;;;3.33;;
36321;SDS011;23564;48.290;11.460;2022-08-23T02:45:04;8.15;;;3.80;;
36321;SDS011;23564;48.290;11.460;2022-08-23T02:47:32;7.65;;;3.60;;
36321;SDS011;23564;48.290;11.460;2022-08-23T02:50:01;7.85;;;4.20;;
36321;SDS011;23564;48.290;11.460;2022-08-23T02:52:28;5.80;;;3.50;;
36321;SDS011;23564;48.290;11.460;2022-08-23T02:54:54;4.65;;;3.00;;
36321;SDS011;23564;48.290;11.460;2022-08-23T02:57:19;7.00;;;4.15;;
36321;SDS011;23564;48.290;11.460;2022-08-23T02:59:45;4.28;;;3.17;;
36321;SDS011;23564;48.290;11.460;2022-08-23T03:02:10;7.57;;;2.95;;
36321;SDS011;23564;48.290;11.460;2022-08-23T03:04:36;5.65;;;3.15;;
36321;SDS011;23564;48.290;11.460;2022-08-23T03:07:02;5.25;;;3.65;;
36321;SDS011;23564;48.290;11.460;2022-08-23T03:09:28;6.93;;;3.53;;
36321;SDS011;23564;48.290;11.460;2022-08-23T03:11:53;5.03;;;3.00;;
36321;SDS011;23564;48.290;11.460;2022-08-23T03:14:19;4.10;;;2.90;;
36321;SDS011;23564;48.290;11.460;2022-08-23T03:16:45;6.30;;;3.22;;
36321;SDS011;23564;48.290;11.460;2022-08-23T03:19:10;5.60;;;3.47;;
36321;SDS011;23564;48.290;11.460;2022-08-23T03:21:36;7.97;;;3.40;;
36321;SDS011;23564;48.290;11.460;2022-08-23T03:24:02;8.10;;;3.70;;
36321;SDS011;23564;48.290;11.460;2022-08-23T03:26:28;4.47;;;3.17;;
36321;SDS011;23564;48.290;11.460;2022-08-23T03:28:54;6.28;;;3.00;;
36321;SDS011;23564;48.290;11.460;2022-08-23T03:31:20;6.65;;;3.60;;
36321;SDS011;23564;48.290;11.460;2022-08-23T03:33:46;7.10;;;3.22;;
36321;SDS011;23564;48.290;11.460;2022-08-23T03:36:12;5.38;;;2.80;;
36321;SDS011;23564;48.290;11.460;2022-08-23T03:38:38;8.65;;;3.67;;
36321;SDS011;23564;48.290;11.460;2022-08-23T03:41:05;4.13;;;2.47;;
36321;SDS011;23564;48.290;11.460;2022-08-23T03:43:31;5.22;;;3.03;;
36321;SDS011;23564;48.290;11.460;2022-08-23T03:45:57;4.47;;;3.00;;
36321;SDS011;23564;48.290;11.460;2022-08-23T03:48:23;9.02;;;2.65;;
36321;SDS011;23564;48.290;11.460;2022-08-23T03:50:49;6.47;;;2.97;;
36321;SDS011;23564;48.290;11.460;2022-08-23T03:53:14;4.68;;;3.00;;
36321;SDS011;23564;48.290;11.460;2022-08-23T03:55:40;6.00;;;3.33;;
36321;SDS011;23564;48.290;11.460;2022-08-23T03:58:07;4.82;;;3.25;;
36321;SDS011;23564;48.290;11.460;2022-08-23T04:00:33;4.60;;;3.17;;
36321;SDS011;23564;48.290;11.460;2022-08-23T04:02:59;5.00;;;3.35;;
36321;SDS011;23564;48.290;11.460;2022-08-23T04:05:25;6.82;;;2.85;;
36321;SDS011;23564;48.290;11.460;2022-08-23T04:07:51;5.88;;;3.42;;
36321;SDS011;23564;48.290;11.460;2022-08-23T04:10:16;7.38;;;3.13;;
36321;SDS011;23564;48.290;11.460;2022-08-23T04:12:43;7.45;;;4.18;;
36321;SDS011;23564;48.290;11.460;2022-08-23T04:15:09;3.90;;;3.17;;
36321;SDS011;23564;48.290;11.460;2022-08-23T04:17:35;5.57;;;3.50;;
36321;SDS011;23564;48.290;11.460;2022-08-23T04:20:02;5.35;;;3.58;;
36321;SDS011;23564;48.290;11.460;2022-08-23T04:22:28;4.47;;;2.63;;
36321;SDS011;23564;48.290;11.460;2022-08-23T04:24:54;8.38;;;3.92;;
36321;SDS011;23564;48.290;11.460;2022-08-23T04:27:20;4.97;;;3.38;;
36321;SDS011;23564;48.290;11.460;2022-08-23T04:29:46;6.28;;;3.40;;
36321;SDS011;23564;48.290;11.460;2022-08-23T04:32:12;10.02;;;3.60;;
36321;SDS011;23564;48.290;11.460;2022-08-23T04:34:39;5.22;;;3.60;;
36321;SDS011;23564;48.290;11.460;2022-08-23T04:37:06;6.38;;;3.22;;
36321;SDS011;23564;48.290;11.460;2022-08-23T04:39:33;6.72;;;3.00;;
36321;SDS011;23564;48.290;11.460;2022-08-23T04:42:19;9.23;;;3.58;;
36321;SDS011;23564;48.290;11.460;2022-08-23T04:44:47;5.25;;;3.63;;
36321;SDS011;23564;48.290;11.460;2022-08-23T04:47:13;7.22;;;3.65;;
36321;SDS011;23564;48.290;11.460;2022-08-23T04:49:39;7.65;;;3.22;;
36321;SDS011;23564;48.290;11.460;2022-08-23T04:52:04;5.80;;;3.38;;
36321;SDS011;23564;48.290;11.460;2022-08-23T04:54:30;5.25;;;3.55;;
36321;SDS011;23564;48.290;11.460;2022-08-23T04:56:56;5.72;;;3.78;;
36321;SDS011;23564;48.290;11.460;2022-08-23T04:59:22;5.32;;;4.03;;
36321;SDS011;23564;48.290;11.460;2022-08-23T05:01:48;5.10;;;3.83;;
36321;SDS011;23564;48.290;11.460;2022-08-23T05:04:14;5.03;;;3.65;;
36321;SDS011;23564;48.290;11.460;2022-08-23T05:06:40;6.05;;;3.78;;
36321;SDS011;23564;48.290;11.460;2022-08-23T05:09:06;7.45;;;3.80;;
36321;SDS011;23564;48.290;11.460;2022-08-23T05:11:32;6.90;;;3.85;;
36321;SDS011;23564;48.290;11.460;2022-08-23T05:13:58;6.13;;;4.18;;
36321;SDS011;23564;48.290;11.460;2022-08-23T05:16:24;7.75;;;4.20;;
36321;SDS011;23564;48.290;11.460;2022-08-23T05:18:49;8.88;;;4.30;;
36321;SDS011;23564;48.290;11.460;2022-08-23T05:21:16;6.95;;;4.38;;
36321;SDS011;23564;48.290;11.460;2022-08-23T05:23:45;7.78;;;4.63;;
36321;SDS011;23564;48.290;11.460;2022-08-23T05:26:11;6.00;;;4.38;;
36321;SDS011;23564;48.290;11.460;2022-08-23T05:28:39;7.97;;;5.07;;
36321;SDS011;23564;48.290;11.460;2022-08-23T05:31:09;7.90;;;3.70;;
36321;SDS011;23564;48.290;11.460;2022-08-23T05:33:37;6.55;;;4.68;;
36321;SDS011;23564;48.290;11.460;2022-08-23T05:36:04;9.38;;;4.85;;
36321;SDS011;23564;48.290;11.460;2022-08-23T05:38:30;6.97;;;4.85;;
36321;SDS011;23564;48.290;11.460;2022-08-23T05:40:56;7.00;;;4.93;;
36321;SDS011;23564;48.290;11.460;2022-08-23T05:43:23;14.32;;;5.78;;
36321;SDS011;23564;48.290;11.460;2022-08-23T05:45:59;8.77;;;5.40;;
36321;SDS011;23564;48.290;11.460;2022-08-23T05:48:26;8.40;;;5.25;;
36321;SDS011;23564;48.290;11.460;2022-08-23T05:50:52;7.07;;;5.38;;
36321;SDS011;23564;48.290;11.460;2022-08-23T05:53:18;6.28;;;5.05;;
36321;SDS011;23564;48.290;11.460;2022-08-23T05:55:44;11.90;;;5.18;;
36321;SDS011;23564;48.290;11.460;2022-08-23T05:58:10;6.63;;;5.07;;
36321;SDS011;23564;48.290;11.460;2022-08-23T06:00:35;6.93;;;5.13;;
36321;SDS011;23564;48.290;11.460;2022-08-23T06:03:01;9.20;;;5.90;;
36321;SDS011;23564;48.290;11.460;2022-08-23T06:05:27;6.75;;;5.15;;
36321;SDS011;23564;48.290;11.460;2022-08-23T06:07:52;12.65;;;5.50;;
36321;SDS011;23564;48.290;11.460;2022-08-23T06:10:19;8.63;;;5.70;;
36321;SDS011;23564;48.290;11.460;2022-08-23T06:12:45;6.47;;;5.03;;
36321;SDS011;23564;48.290;11.460;2022-08-23T06:15:11;8.93;;;5.15;;
36321;SDS011;23564;48.290;11.460;2022-08-23T06:17:37;7.95;;;5.93;;
36321;SDS011;23564;48.290;11.460;2022-08-23T06:20:03;7.88;;;5.07;;
36321;SDS011;23564;48.290;11.460;2022-08-23T06:22:30;9.32;;;4.63;;
36321;SDS011;23564;48.290;11.460;2022-08-23T06:24:56;8.95;;;5.20;;
36321;SDS011;23564;48.290;11.460;2022-08-23T06:27:22;7.70;;;4.93;;
36321;SDS011;23564;48.290;11.460;2022-08-23T06:29:47;7.32;;;5.35;;
36321;SDS011;23564;48.290;11.460;2022-08-23T06:32:13;7.00;;;5.30;;
36321;SDS011;23564;48.290;11.460;2022-08-23T06:34:39;8.95;;;5.30;;
36321;SDS011;23564;48.290;11.460;2022-08-23T06:37:09;6.65;;;4.78;;
36321;SDS011;23564;48.290;11.460;2022-08-23T06:39:36;9.65;;;4.80;;
36321;SDS011;23564;48.290;11.460;2022-08-23T06:42:07;9.77;;;5.50;;
36321;SDS011;23564;48.290;11.460;2022-08-23T06:44:33;7.78;;;5.22;;
36321;SDS011;23564;48.290;11.460;2022-08-23T06:46:59;8.15;;;5.22;;
36321;SDS011;23564;48.290;11.460;2022-08-23T06:49:25;7.90;;;5.30;;
36321;SDS011;23564;48.290;11.460;2022-08-23T06:51:52;7.43;;;5.50;;
36321;SDS011;23564;48.290;11.460;2022-08-23T06:54:22;11.20;;;4.80;;
36321;SDS011;23564;48.290;11.460;2022-08-23T06:56:49;8.25;;;5.63;;
36321;SDS011;23564;48.290;11.460;2022-08-23T06:59:15;9.18;;;5.53;;
36321;SDS011;23564;48.290;11.460;2022-08-23T07:01:43;7.82;;;4.88;;
36321;SDS011;23564;48.290;11.460;2022-08-23T07:04:13;5.28;;;4.15;;
36321;SDS011;23564;48.290;11.460;2022-08-23T07:06:40;8.00;;;4.55;;
36321;SDS011;23564;48.290;11.460;2022-08-23T07:09:05;6.55;;;4.53;;
36321;SDS011;23564;48.290;11.460;2022-08-23T07:11:32;9.73;;;5.13;;
36321;SDS011;23564;48.290;11.460;2022-08-23T07:14:00;6.03;;;4.03;;
36321;SDS011;23564;48.290;11.460;2022-08-23T07:16:31;11.52;;;4.53;;
36321;SDS011;23564;48.290;11.460;2022-08-23T07:19:01;6.75;;;4.07;;
36321;SDS011;23564;48.290;11.460;2022-08-23T07:21:27;8.15;;;4.20;;
36321;SDS011;23564;48.290;11.460;2022-08-23T07:23:53;4.05;;;3.65;;
36321;SDS011;23564;48.290;11.460;2022-08-23T07:26:19;9.52;;;3.92;;
36321;SDS011;23564;48.290;11.460;2022-08-23T07:28:46;6.40;;;3.80;;
36321;SDS011;23564;48.290;11.460;2022-08-23T07:31:13;7.63;;;3.40;;
36321;SDS011;23564;48.290;11.460;2022-08-23T07:33:45;6.38;;;4.00;;
36321;SDS011;23564;48.290;11.460;2022-08-23T07:36:16;5.68;;;4.13;;
36321;SDS011;23564;48.290;11.460;2022-08-23T07:38:43;7.77;;;4.00;;
36321;SDS011;23564;48.290;11.460;2022-08-23T07:41:10;7.65;;;4.35;;
36321;SDS011;23564;48.290;11.460;2022-08-23T07:43:36;8.10;;;4.00;;
36321;SDS011;23564;48.290;11.460;2022-08-23T07:46:02;7.75;;;4.07;;
36321;SDS011;23564;48.290;11.460;2022-08-23T07:48:29;6.75;;;3.85;;
36321;SDS011;23564;48.290;11.460;2022-08-23T07:50:57;7.07;;;2.88;;
36321;SDS011;23564;48.290;11.460;2022-08-23T07:53:24;7.60;;;3.83;;
36321;SDS011;23564;48.290;11.460;2022-08-23T07:55:50;5.20;;;3.20;;
36321;SDS011;23564;48.290;11.460;2022-08-23T07:58:17;7.03;;;3.38;;
36321;SDS011;23564;48.290;11.460;2022-08-23T08:00:43;5.72;;;3.65;;
36321;SDS011;23564;48.290;11.460;2022-08-23T08:03:10;4.63;;;3.00;;
36321;SDS011;23564;48.290;11.460;2022-08-23T08:05:37;4.57;;;2.83;;
36321;SDS011;23564;48.290;11.460;2022-08-23T08:08:03;5.47;;;3.10;;
36321;SDS011;23564;48.290;11.460;2022-08-23T08:10:30;5.18;;;3.13;;
36321;SDS011;23564;48.290;11.460;2022-08-23T08:12:56;9.90;;;2.97;;
36321;SDS011;23564;48.290;11.460;2022-08-23T08:15:22;6.18;;;3.28;;
36321;SDS011;23564;48.290;11.460;2022-08-23T08:17:48;5.68;;;3.30;;
36321;SDS011;23564;48.290;11.460;2022-08-23T08:20:15;5.00;;;2.70;;
36321;SDS011;23564;48.290;11.460;2022-08-23T08:22:41;3.88;;;2.83;;
36321;SDS011;23564;48.290;11.460;2022-08-23T08:25:08;3.35;;;2.42;;
36321;SDS011;23564;48.290;11.460;2022-08-23T08:27:35;5.20;;;2.60;;
36321;SDS011;23564;48.290;11.460;2022-08-23T08:30:01;8.10;;;2.58;;
36321;SDS011;23564;48.290;11.460;2022-08-23T08:32:27;5.90;;;3.00;;
36321;SDS011;23564;48.290;11.460;2022-08-23T08:34:53;5.50;;;2.80;;
36321;SDS011;23564;48.290;11.460;2022-08-23T08:37:18;3.53;;;2.13;;
36321;SDS011;23564;48.290;11.460;2022-08-23T08:39:44;7.32;;;2.60;;
36321;SDS011;23564;48.290;11.460;2022-08-23T08:45:04;7.10;;;2.53;;
36321;SDS011;23564;48.290;11.460;2022-08-23T08:52:50;6.60;;;2.50;;
36321;SDS011;23564;48.290;11.460;2022-08-23T08:55:23;3.65;;;2.30;;
36321;SDS011;23564;48.290;11.460;2022-08-23T08:57:51;6.80;;;2.55;;
36321;SDS011;23564;48.290;11.460;2022-08-23T09:00:21;3.00;;;2.20;;
36321;SDS011;23564;48.290;11.460;2022-08-23T09:02:52;7.38;;;3.13;;
36321;SDS011;23564;48.290;11.460;2022-08-23T09:05:23;8.85;;;2.78;;
36321;SDS011;23564;48.290;11.460;2022-08-23T09:13:41;7.05;;;2.80;;
36321;SDS011;23564;48.290;11.460;2022-08-23T09:19:04;3.95;;;2.35;;
36321;SDS011;23564;48.290;11.460;2022-08-23T09:24:20;3.75;;;2.33;;
36321;SDS011;23564;48.290;11.460;2022-08-23T09:26:46;4.95;;;2.88;;
36321;SDS011;23564;48.290;11.460;2022-08-23T09:31:53;6.18;;;2.70;;
36321;SDS011;23564;48.290;11.460;2022-08-23T09:36:56;7.50;;;2.20;;
36321;SDS011;23564;48.290;11.460;2022-08-23T09:39:52;4.45;;;1.98;;
36321;SDS011;23564;48.290;11.460;2022-08-23T09:42:38;6.90;;;2.95;;
36321;SDS011;23564;48.290;11.460;2022-08-23T09:45:24;8.25;;;2.33;;
36321;SDS011;23564;48.290;11.460;2022-08-23T09:48:02;3.75;;;2.10;;
36321;SDS011;23564;48.290;11.460;2022-08-23T09:50:40;3.53;;;1.95;;
36321;SDS011;23564;48.290;11.460;2022-08-23T09:53:12;5.82;;;2.22;;
36321;SDS011;23564;48.290;11.460;2022-08-23T09:55:41;4.70;;;2.55;;
36321;SDS011;23564;48.290;11.460;2022-08-23T10:01:15;6.57;;;2.05;;
36321;SDS011;23564;48.290;11.460;2022-08-23T10:03:44;3.92;;;1.88;;
36321;SDS011;23564;48.290;11.460;2022-08-23T10:06:11;2.88;;;1.90;;
36321;SDS011;23564;48.290;11.460;2022-08-23T10:08:52;2.10;;;1.40;;
36321;SDS011;23564;48.290;11.460;2022-08-23T10:11:24;4.80;;;1.67;;
36321;SDS011;23564;48.290;11.460;2022-08-23T10:13:53;2.53;;;1.55;;
36321;SDS011;23564;48.290;11.460;2022-08-23T10:27:36;6.57;;;2.20;;
36321;SDS011;23564;48.290;11.460;2022-08-23T10:33:41;2.30;;;1.52;;
36321;SDS011;23564;48.290;11.460;2022-08-23T10:36:38;2.40;;;1.73;;
36321;SDS011;23564;48.290;11.460;2022-08-23T10:39:24;4.28;;;1.70;;
36321;SDS011;23564;48.290;11.460;2022-08-23T10:49:32;2.13;;;1.50;;
36321;SDS011;23564;48.290;11.460;2022-08-23T10:52:00;2.20;;;1.52;;
36321;SDS011;23564;48.290;11.460;2022-08-23T10:54:32;2.90;;;1.50;;
36321;SDS011;23564;48.290;11.460;2022-08-23T10:57:34;2.75;;;1.13;;
36321;SDS011;23564;48.290;11.460;2022-08-23T11:00:10;3.83;;;1.50;;
36321;SDS011;23564;48.290;11.460;2022-08-23T11:05:28;7.38;;;1.90;;
36321;SDS011;23564;48.290;11.460;2022-08-23T11:13:04;4.72;;;1.45;;
36321;SDS011;23564;48.290;11.460;2022-08-23T11:15:55;3.58;;;1.45;;
36321;SDS011;23564;48.290;11.460;2022-08-23T11:18:43;4.13;;;1.65;;
36321;SDS011;23564;48.290;11.460;2022-08-23T11:28:52;2.42;;;1.70;;
36321;SDS011;23564;48.290;11.460;2022-08-23T11:34:22;4.38;;;1.60;;
36321;SDS011;23564;48.290;11.460;2022-08-23T11:42:22;4.25;;;1.52;;
36321;SDS011;23564;48.290;11.460;2022-08-23T11:45:28;5.95;;;1.70;;
36321;SDS011;23564;48.290;11.460;2022-08-23T11:55:57;3.35;;;1.50;;
36321;SDS011;23564;48.290;11.460;2022-08-23T12:01:17;4.53;;;1.50;;
36321;SDS011;23564;48.290;11.460;2022-08-23T12:04:46;2.17;;;1.60;;
36321;SDS011;23564;48.290;11.460;2022-08-23T12:06:52;4.40;;;1.70;;
36321;SDS011;23564;48.290;11.460;2022-08-23T12:19:43;2.95;;;1.90;;
36321;SDS011;23564;48.290;11.460;2022-08-23T12:22:14;7.72;;;2.08;;
36321;SDS011;23564;48.290;11.460;2022-08-23T12:24:53;3.13;;;1.00;;
36321;SDS011;23564;48.290;11.460;2022-08-23T12:27:45;2.40;;;1.40;;
36321;SDS011;23564;48.290;11.460;2022-08-23T12:30:20;3.75;;;1.40;;
36321;SDS011;23564;48.290;11.460;2022-08-23T12:35:54;3.65;;;1.52;;
36321;SDS011;23564;48.290;11.460;2022-08-23T12:41:32;4.63;;;1.52;;
36321;SDS011;23564;48.290;11.460;2022-08-23T12:44:15;2.58;;;1.13;;
36321;SDS011;23564;48.290;11.460;2022-08-23T12:46:44;4.20;;;1.23;;
36321;SDS011;23564;48.290;11.460;2022-08-23T12:49:23;2.50;;;1.27;;
36321;SDS011;23564;48.290;11.460;2022-08-23T12:51:55;6.43;;;1.23;;
36321;SDS011;23564;48.290;11.460;2022-08-23T12:54:31;2.35;;;1.48;;
36321;SDS011;23564;48.290;11.460;2022-08-23T12:56:59;1.52;;;1.00;;
36321;SDS011;23564;48.290;11.460;2022-08-23T13:02:07;4.32;;;1.58;;
36321;SDS011;23564;48.290;11.460;2022-08-23T13:04:38;2.33;;;1.20;;
36321;SDS011;23564;48.290;11.460;2022-08-23T13:07:05;2.75;;;1.30;;
36321;SDS011;23564;48.290;11.460;2022-08-23T13:09:36;2.42;;;1.27;;
36321;SDS011;23564;48.290;11.460;2022-08-23T13:12:03;3.55;;;1.63;;
36321;SDS011;23564;48.290;11.460;2022-08-23T13:16:57;2.85;;;1.10;;
36321;SDS011;23564;48.290;11.460;2022-08-23T13:19:52;2.65;;;1.20;;
36321;SDS011;23564;48.290;11.460;2022-08-23T13:22:35;2.92;;;1.27;;
36321;SDS011;23564;48.290;11.460;2022-08-23T13:25:09;3.65;;;0.98;;
36321;SDS011;23564;48.290;11.460;2022-08-23T13:32:48;2.83;;;1.10;;
36321;SDS011;23564;48.290;11.460;2022-08-23T13:35:28;3.42;;;1.08;;
36321;SDS011;23564;48.290;11.460;2022-08-23T13:37:56;2.85;;;1.08;;
36321;SDS011;23564;48.290;11.460;2022-08-23T13:40:37;1.73;;;0.95;;
36321;SDS011;23564;48.290;11.460;2022-08-23T13:43:07;1.63;;;1.00;;
36321;SDS011;23564;48.290;11.460;2022-08-23T13:45:36;4.63;;;1.08;;
36321;SDS011;23564;48.290;11.460;2022-08-23T13:48:24;2.47;;;1.25;;
36321;SDS011;23564;48.290;11.460;2022-08-23T13:51:06;2.28;;;1.02;;
36321;SDS011;23564;48.290;11.460;2022-08-23T13:53:57;4.78;;;1.38;;
36321;SDS011;23564;48.290;11.460;2022-08-23T13:56:25;2.15;;;1.25;;
36321;SDS011;23564;48.290;11.460;2022-08-23T13:58:54;2.55;;;0.82;;
36321;SDS011;23564;48.290;11.460;2022-08-23T14:01:41;1.88;;;1.17;;
36321;SDS011;23564;48.290;11.460;2022-08-23T14:04:06;3.10;;;0.95;;
36321;SDS011;23564;48.290;11.460;2022-08-23T14:06:32;1.75;;;1.05;;
36321;SDS011;23564;48.290;11.460;2022-08-23T14:08:57;2.45;;;1.10;;
36321;SDS011;23564;48.290;11.460;2022-08-23T14:11:23;3.78;;;1.30;;
36321;SDS011;23564;48.290;11.460;2022-08-23T14:13:48;1.77;;;1.13;;
36321;SDS011;23564;48.290;11.460;2022-08-23T14:16:17;2.50;;;1.17;;
36321;SDS011;23564;48.290;11.460;2022-08-23T14:18:52;4.43;;;1.33;;
36321;SDS011;23564;48.290;11.460;2022-08-23T14:21:18;2.67;;;1.33;;
36321;SDS011;23564;48.290;11.460;2022-08-23T14:23:44;1.75;;;1.10;;
36321;SDS011;23564;48.290;11.460;2022-08-23T14:26:10;1.95;;;1.27;;
36321;SDS011;23564;48.290;11.460;2022-08-23T14:28:39;1.83;;;1.10;;
36321;SDS011;23564;48.290;11.460;2022-08-23T14:31:05;3.97;;;1.63;;
36321;SDS011;23564;48.290;11.460;2022-08-23T14:33:30;3.08;;;1.45;;
36321;SDS011;23564;48.290;11.460;2022-08-23T14:35:56;2.53;;;1.50;;
36321;SDS011;23564;48.290;11.460;2022-08-23T14:38:22;1.70;;;1.02;;
36321;SDS011;23564;48.290;11.460;2022-08-23T14:40:52;3.15;;;1.13;;
36321;SDS011;23564;48.290;11.460;2022-08-23T14:43:23;4.50;;;1.40;;
36321;SDS011;23564;48.290;11.460;2022-08-23T14:45:49;2.97;;;1.70;;
36321;SDS011;23564;48.290;11.460;2022-08-23T14:48:16;2.72;;;1.17;;
36321;SDS011;23564;48.290;11.460;2022-08-23T14:50:42;6.00;;;1.27;;
36321;SDS011;23564;48.290;11.460;2022-08-23T14:53:09;3.88;;;1.42;;
36321;SDS011;23564;48.290;11.460;2022-08-23T14:55:36;4.18;;;1.23;;
36321;SDS011;23564;48.290;11.460;2022-08-23T14:58:02;3.25;;;1.38;;
36321;SDS011;23564;48.290;11.460;2022-08-23T15:00:28;2.08;;;1.30;;
36321;SDS011;23564;48.290;11.460;2022-08-23T15:02:55;1.83;;;1.17;;
36321;SDS011;23564;48.290;11.460;2022-08-23T15:05:21;1.88;;;1.20;;
36321;SDS011;23564;48.290;11.460;2022-08-23T15:07:47;4.45;;;1.20;;
36321;SDS011;23564;48.290;11.460;2022-08-23T15:10:13;3.35;;;1.23;;
36321;SDS011;23564;48.290;11.460;2022-08-23T15:12:39;3.05;;;1.13;;
36321;SDS011;23564;48.290;11.460;2022-08-23T15:15:06;2.42;;;1.17;;
36321;SDS011;23564;48.290;11.460;2022-08-23T15:17:36;3.47;;;1.25;;
36321;SDS011;23564;48.290;11.460;2022-08-23T15:22:33;2.70;;;1.23;;
36321;SDS011;23564;48.290;11.460;2022-08-23T15:24:58;2.25;;;1.15;;
36321;SDS011;23564;48.290;11.460;2022-08-23T15:27:24;2.40;;;1.33;;
36321;SDS011;23564;48.290;11.460;2022-08-23T15:29:49;1.45;;;1.20;;
36321;SDS011;23564;48.290;11.460;2022-08-23T15:32:15;4.35;;;1.25;;
36321;SDS011;23564;48.290;11.460;2022-08-23T15:34:41;5.80;;;1.50;;
36321;SDS011;23564;48.290;11.460;2022-08-23T15:37:06;2.13;;;1.42;;
36321;SDS011;23564;48.290;11.460;2022-08-23T15:39:32;3.40;;;1.05;;
36321;SDS011;23564;48.290;11.460;2022-08-23T15:41:58;1.55;;;1.30;;
36321;SDS011;23564;48.290;11.460;2022-08-23T15:44:23;6.15;;;1.40;;
36321;SDS011;23564;48.290;11.460;2022-08-23T15:46:49;2.40;;;1.50;;
36321;SDS011;23564;48.290;11.460;2022-08-23T15:49:15;4.45;;;1.27;;
36321;SDS011;23564;48.290;11.460;2022-08-23T15:51:42;4.00;;;1.30;;
36321;SDS011;23564;48.290;11.460;2022-08-23T15:54:09;2.88;;;1.30;;
36321;SDS011;23564;48.290;11.460;2022-08-23T15:56:45;2.53;;;1.20;;
36321;SDS011;23564;48.290;11.460;2022-08-23T15:59:14;3.63;;;1.58;;
36321;SDS011;23564;48.290;11.460;2022-08-23T16:01:41;3.20;;;1.33;;
36321;SDS011;23564;48.290;11.460;2022-08-23T16:04:07;2.05;;;1.00;;
36321;SDS011;23564;48.290;11.460;2022-08-23T16:06:33;1.95;;;1.30;;
36321;SDS011;23564;48.290;11.460;2022-08-23T16:09:00;2.50;;;1.25;;
36321;SDS011;23564;48.290;11.460;2022-08-23T16:11:26;2.95;;;1.20;;
36321;SDS011;23564;48.290;11.460;2022-08-23T16:13:52;1.88;;;1.10;;
36321;SDS011;23564;48.290;11.460;2022-08-23T16:16:22;3.08;;;1.45;;
36321;SDS011;23564;48.290;11.460;2022-08-23T16:21:17;2.28;;;1.20;;
36321;SDS011;23564;48.290;11.460;2022-08-23T16:23:43;3.97;;;1.23;;
36321;SDS011;23564;48.290;11.460;2022-08-23T16:26:10;3.10;;;1.67;;
36321;SDS011;23564;48.290;11.460;2022-08-23T16:28:40;4.05;;;1.13;;
36321;SDS011;23564;48.290;11.460;2022-08-23T16:31:06;4.68;;;1.42;;
36321;SDS011;23564;48.290;11.460;2022-08-23T16:33:32;3.63;;;1.20;;
36321;SDS011;23564;48.290;11.460;2022-08-23T16:35:57;3.15;;;1.33;;
36321;SDS011;23564;48.290;11.460;2022-08-23T16:38:23;1.75;;;1.40;;
36321;SDS011;23564;48.290;11.460;2022-08-23T16:40:49;2.78;;;1.25;;
36321;SDS011;23564;48.290;11.460;2022-08-23T16:43:14;2.00;;;1.30;;
36321;SDS011;23564;48.290;11.460;2022-08-23T16:45:40;1.63;;;1.17;;
36321;SDS011;23564;48.290;11.460;2022-08-23T16:48:05;3.00;;;1.25;;